Share

Prinsburg, MN (56281)

Renville (KMNRENVI2) Elev 1063 ft | 44.79 °N, 95.16 °W | Change Station

Current weather conditions updated 11 seconds ago

Overcast
Overcast
54.0 °F
Feels Like 54.0 °F
N
0.0
Wind Variable Wind from North
Gusts 0.0 mph
Sunrise 6:25 AM
Sunset 8:13 PM
Moon Waning Gibbous

Today is forecast to be Much Cooler than yesterday.

Pressure 29.95 in
Visibility 10.0 miles
Clouds Mostly Cloudy 5000 ft
Overcast 6500 ft
Dew Point 50 °F
Humidity 87%
Rainfall 0.00 in
Snow Depth Not available.
UV 0 out of 16
Pollen 10.30 out of 12
Air Quality Not available.
Flu Activity Sporadic
METAR KBDH 211056Z AUTO 33010KT 10SM BKN050 OVC065 12/08 A2995 RMK AO2 LTG DSNT SE

More Conditions Fewer Conditions

Pressure 29.95 in
Visibility 10.0 miles
Clouds Mostly Cloudy 5000 ft
Overcast 6500 ft
Dew Point 50 °F
Humidity 87%
Rainfall 0.00 in
Snow Depth Not available.
UV 0 out of 16
Pollen 10.30 out of 12
Air Quality Not available.
Flu Activity Sporadic
METAR KBDH 211056Z AUTO 33010KT 10SM BKN050 OVC065 12/08 A2995 RMK AO2 LTG DSNT SE

More Conditions Fewer Conditions

10-Day Weather Forecast

Almanac

Astronomy

Apr. 21, 2014 Rise Set
Actual Time 6:25 AM CDT 8:13 PM CDT
Civil Twilight 5:54 AM CDT 8:45 PM CDT
Nautical Twilight 5:16 AM CDT 9:23 PM CDT
Astronomical Twilight 4:35 AM CDT 10:04 PM CDT
Moon 1:48 AM CDT 11:50 AM CDT
Length of Visible Light 14h 50m
Length of Day
13h 47m
Tomorrow will be 2m 55s longer.
Waning Gibbous, 60% of the Moon is Illuminated
Today
Waning Gibbous
Apr 22
Last Quarter
Apr 29
New
May 6
First Quarter
May 14
Full

Today's Extremes

State Highs State Lows

Community

  • Snowy Robin
    Snowy Robin
  • Sun Pillar and Geese
    Sun Pillar and Geese
  • Showers on the Way
    Showers on the Way
  • Easter Morning Fog
    Easter Morning Fog
  • Easter Dance
    Easter Dance

WunderPhotos

Upload Photos

1,703,591 photos uploaded!

WunderBlogs® & News

Nearby

Snow Depth

Station Depth Elevation
No new snow has been reported.

Coastal Water Temperatures

Place Temperature
No Stations Reporting

Earthquake Activity

City Distance Mag. Time & Date
No recent earthquake activity has been reported nearby.
Minimum magnitude displayed is 2.5.

Nearby Weather Stations

Station Location Temp. Dew Point Humidity Wind Precip. Elev Updated Type
Renville, Renville, MN 54.0 °F 50 °F 87% North  at  0.0 mph 0.00 in / hr 1063 ft 6:05 AM CDT Rapid Fire
Willmar, Willmar, MN 54.9 °F 48 °F 77% NNW  at  4.0 mph 0.00 in / hr 1188 ft 5:56 AM CDT Normal
Lake Florida, Spicer, MN 52.8 °F 41 °F 64% North  at  4.0 mph 0.00 in / hr 1129 ft 6:05 AM CDT Normal
George Lake, Spicer, MN 52.2 °F 46 °F 81% NNW  at  0.0 mph 0.00 in / hr 1171 ft 6:05 AM CDT Rapid Fire

Show More Stations Show Fewer Stations

What do you think?

We're not finished. Please let us know what you like, what you don't like, and what you are still missing.